sensor_id;sensor_type;location;lat;lon;timestamp;P1;durP1;ratioP1;P2;durP2;ratioP2
9657;SDS011;4867;48.112;11.622;2023-02-28T00:01:08;5.77;;;3.73;;
9657;SDS011;4867;48.112;11.622;2023-02-28T00:03:36;4.87;;;3.80;;
9657;SDS011;4867;48.112;11.622;2023-02-28T00:06:04;5.17;;;3.77;;
9657;SDS011;4867;48.112;11.622;2023-02-28T00:08:32;4.67;;;3.63;;
9657;SDS011;4867;48.112;11.622;2023-02-28T00:11:00;4.47;;;3.80;;
9657;SDS011;4867;48.112;11.622;2023-02-28T00:13:29;5.83;;;4.20;;
9657;SDS011;4867;48.112;11.622;2023-02-28T00:16:01;5.03;;;3.87;;
9657;SDS011;4867;48.112;11.622;2023-02-28T00:18:29;4.97;;;3.80;;
9657;SDS011;4867;48.112;11.622;2023-02-28T00:20:57;5.53;;;4.20;;
9657;SDS011;4867;48.112;11.622;2023-02-28T00:23:25;4.93;;;4.23;;
9657;SDS011;4867;48.112;11.622;2023-02-28T00:25:53;5.07;;;4.10;;
9657;SDS011;4867;48.112;11.622;2023-02-28T00:28:21;5.30;;;4.00;;
9657;SDS011;4867;48.112;11.622;2023-02-28T00:30:48;5.40;;;3.93;;
9657;SDS011;4867;48.112;11.622;2023-02-28T00:33:16;4.30;;;3.90;;
9657;SDS011;4867;48.112;11.622;2023-02-28T00:35:43;5.77;;;4.10;;
9657;SDS011;4867;48.112;11.622;2023-02-28T00:38:13;5.40;;;4.20;;
9657;SDS011;4867;48.112;11.622;2023-02-28T00:40:41;4.33;;;3.93;;
9657;SDS011;4867;48.112;11.622;2023-02-28T00:43:10;5.17;;;3.90;;
9657;SDS011;4867;48.112;11.622;2023-02-28T00:45:37;4.33;;;3.93;;
9657;SDS011;4867;48.112;11.622;2023-02-28T00:48:04;6.77;;;4.13;;
9657;SDS011;4867;48.112;11.622;2023-02-28T00:50:32;6.33;;;4.10;;
9657;SDS011;4867;48.112;11.622;2023-02-28T00:52:59;5.90;;;4.23;;
9657;SDS011;4867;48.112;11.622;2023-02-28T00:55:27;5.40;;;4.40;;
9657;SDS011;4867;48.112;11.622;2023-02-28T00:57:54;5.10;;;4.27;;
9657;SDS011;4867;48.112;11.622;2023-02-28T01:00:21;5.50;;;4.47;;
9657;SDS011;4867;48.112;11.622;2023-02-28T01:02:49;7.60;;;4.30;;
9657;SDS011;4867;48.112;11.622;2023-02-28T01:05:17;5.50;;;4.37;;
9657;SDS011;4867;48.112;11.622;2023-02-28T01:07:44;6.97;;;4.73;;
9657;SDS011;4867;48.112;11.622;2023-02-28T01:10:11;5.23;;;3.70;;
9657;SDS011;4867;48.112;11.622;2023-02-28T01:12:40;6.17;;;4.67;;
9657;SDS011;4867;48.112;11.622;2023-02-28T01:15:09;5.60;;;4.50;;
9657;SDS011;4867;48.112;11.622;2023-02-28T01:17:37;4.70;;;4.20;;
9657;SDS011;4867;48.112;11.622;2023-02-28T01:20:05;5.10;;;4.40;;
9657;SDS011;4867;48.112;11.622;2023-02-28T01:22:34;6.30;;;4.53;;
9657;SDS011;4867;48.112;11.622;2023-02-28T01:25:01;6.67;;;4.53;;
9657;SDS011;4867;48.112;11.622;2023-02-28T01:27:31;6.40;;;4.37;;
9657;SDS011;4867;48.112;11.622;2023-02-28T01:29:58;7.13;;;4.60;;
9657;SDS011;4867;48.112;11.622;2023-02-28T01:32:25;6.13;;;4.90;;
9657;SDS011;4867;48.112;11.622;2023-02-28T01:34:52;5.30;;;4.50;;
9657;SDS011;4867;48.112;11.622;2023-02-28T01:37:22;6.00;;;4.53;;
9657;SDS011;4867;48.112;11.622;2023-02-28T01:39:49;6.20;;;4.67;;
9657;SDS011;4867;48.112;11.622;2023-02-28T01:42:19;4.97;;;4.47;;
9657;SDS011;4867;48.112;11.622;2023-02-28T01:47:42;5.43;;;4.47;;
9657;SDS011;4867;48.112;11.622;2023-02-28T01:50:15;5.97;;;4.87;;
9657;SDS011;4867;48.112;11.622;2023-02-28T01:52:46;5.27;;;4.43;;
9657;SDS011;4867;48.112;11.622;2023-02-28T01:55:15;6.90;;;5.17;;
9657;SDS011;4867;48.112;11.622;2023-02-28T01:57:46;5.77;;;4.70;;
9657;SDS011;4867;48.112;11.622;2023-02-28T02:00:17;5.13;;;4.63;;
9657;SDS011;4867;48.112;11.622;2023-02-28T02:02:49;7.87;;;5.37;;
9657;SDS011;4867;48.112;11.622;2023-02-28T02:05:21;5.73;;;4.80;;
9657;SDS011;4867;48.112;11.622;2023-02-28T02:08:09;5.50;;;5.00;;
9657;SDS011;4867;48.112;11.622;2023-02-28T02:10:40;7.03;;;4.80;;
9657;SDS011;4867;48.112;11.622;2023-02-28T02:13:18;6.60;;;5.40;;
9657;SDS011;4867;48.112;11.622;2023-02-28T02:16:12;5.10;;;4.60;;
9657;SDS011;4867;48.112;11.622;2023-02-28T02:18:50;5.40;;;4.90;;
9657;SDS011;4867;48.112;11.622;2023-02-28T02:27:18;5.97;;;5.13;;
9657;SDS011;4867;48.112;11.622;2023-02-28T02:33:21;5.63;;;4.97;;
9657;SDS011;4867;48.112;11.622;2023-02-28T02:38:52;5.37;;;4.83;;
9657;SDS011;4867;48.112;11.622;2023-02-28T02:47:17;6.37;;;4.80;;
9657;SDS011;4867;48.112;11.622;2023-02-28T02:49:49;5.37;;;4.87;;
9657;SDS011;4867;48.112;11.622;2023-02-28T02:52:20;6.87;;;4.77;;
9657;SDS011;4867;48.112;11.622;2023-02-28T02:54:52;5.93;;;5.30;;
9657;SDS011;4867;48.112;11.622;2023-02-28T02:57:23;6.33;;;4.90;;
9657;SDS011;4867;48.112;11.622;2023-02-28T02:59:56;6.30;;;5.40;;
9657;SDS011;4867;48.112;11.622;2023-02-28T03:02:25;6.53;;;5.50;;
9657;SDS011;4867;48.112;11.622;2023-02-28T03:05:23;5.80;;;5.03;;
9657;SDS011;4867;48.112;11.622;2023-02-28T03:07:51;6.33;;;5.40;;
9657;SDS011;4867;48.112;11.622;2023-02-28T03:24:19;7.30;;;6.40;;
9657;SDS011;4867;48.112;11.622;2023-02-28T03:26:55;8.50;;;6.23;;
9657;SDS011;4867;48.112;11.622;2023-02-28T03:29:34;7.30;;;6.00;;
9657;SDS011;4867;48.112;11.622;2023-02-28T03:34:42;7.60;;;5.73;;
9657;SDS011;4867;48.112;11.622;2023-02-28T03:37:34;7.00;;;5.80;;
9657;SDS011;4867;48.112;11.622;2023-02-28T03:40:07;7.90;;;5.93;;
9657;SDS011;4867;48.112;11.622;2023-02-28T03:42:39;7.23;;;6.53;;
9657;SDS011;4867;48.112;11.622;2023-02-28T03:45:24;7.00;;;6.07;;
9657;SDS011;4867;48.112;11.622;2023-02-28T03:47:57;7.10;;;6.30;;
9657;SDS011;4867;48.112;11.622;2023-02-28T03:50:35;6.53;;;5.93;;
9657;SDS011;4867;48.112;11.622;2023-02-28T03:53:10;9.90;;;6.70;;
9657;SDS011;4867;48.112;11.622;2023-02-28T03:55:42;7.53;;;6.73;;
9657;SDS011;4867;48.112;11.622;2023-02-28T03:58:35;8.00;;;6.60;;
9657;SDS011;4867;48.112;11.622;2023-02-28T04:01:36;7.57;;;6.53;;
9657;SDS011;4867;48.112;11.622;2023-02-28T04:04:08;7.90;;;6.80;;
9657;SDS011;4867;48.112;11.622;2023-02-28T04:06:37;8.00;;;6.80;;
9657;SDS011;4867;48.112;11.622;2023-02-28T04:09:08;7.63;;;6.83;;
9657;SDS011;4867;48.112;11.622;2023-02-28T04:11:36;9.23;;;7.50;;
9657;SDS011;4867;48.112;11.622;2023-02-28T04:14:05;8.83;;;7.23;;
9657;SDS011;4867;48.112;11.622;2023-02-28T04:16:35;8.60;;;7.27;;
9657;SDS011;4867;48.112;11.622;2023-02-28T04:19:03;8.33;;;7.30;;
9657;SDS011;4867;48.112;11.622;2023-02-28T04:21:33;8.57;;;7.67;;
9657;SDS011;4867;48.112;11.622;2023-02-28T04:24:06;8.47;;;7.57;;
9657;SDS011;4867;48.112;11.622;2023-02-28T04:26:41;9.13;;;7.60;;
9657;SDS011;4867;48.112;11.622;2023-02-28T04:29:11;8.33;;;7.53;;
9657;SDS011;4867;48.112;11.622;2023-02-28T04:31:40;9.70;;;8.37;;
9657;SDS011;4867;48.112;11.622;2023-02-28T04:34:07;8.97;;;8.03;;
9657;SDS011;4867;48.112;11.622;2023-02-28T04:36:34;9.47;;;8.47;;
9657;SDS011;4867;48.112;11.622;2023-02-28T04:39:02;9.43;;;8.10;;
9657;SDS011;4867;48.112;11.622;2023-02-28T04:41:30;9.63;;;8.27;;
9657;SDS011;4867;48.112;11.622;2023-02-28T04:43:58;9.57;;;8.50;;
9657;SDS011;4867;48.112;11.622;2023-02-28T04:46:26;10.80;;;9.27;;
9657;SDS011;4867;48.112;11.622;2023-02-28T04:48:53;10.23;;;9.23;;
9657;SDS011;4867;48.112;11.622;2023-02-28T04:51:21;9.77;;;8.57;;
9657;SDS011;4867;48.112;11.622;2023-02-28T04:53:48;15.13;;;12.20;;
9657;SDS011;4867;48.112;11.622;2023-02-28T04:56:16;13.03;;;11.63;;
9657;SDS011;4867;48.112;11.622;2023-02-28T04:58:44;20.33;;;17.47;;
9657;SDS011;4867;48.112;11.622;2023-02-28T05:03:54;12.90;;;10.60;;
9657;SDS011;4867;48.112;11.622;2023-02-28T05:06:24;12.47;;;11.20;;
9657;SDS011;4867;48.112;11.622;2023-02-28T05:08:52;13.10;;;10.93;;
9657;SDS011;4867;48.112;11.622;2023-02-28T05:11:30;12.07;;;9.80;;
9657;SDS011;4867;48.112;11.622;2023-02-28T05:14:02;12.30;;;11.00;;
9657;SDS011;4867;48.112;11.622;2023-02-28T05:16:31;11.37;;;10.17;;
9657;SDS011;4867;48.112;11.622;2023-02-28T05:18:59;12.20;;;10.37;;
9657;SDS011;4867;48.112;11.622;2023-02-28T05:23:59;12.50;;;10.90;;
9657;SDS011;4867;48.112;11.622;2023-02-28T05:26:33;13.43;;;10.97;;
9657;SDS011;4867;48.112;11.622;2023-02-28T05:29:04;12.47;;;11.17;;
9657;SDS011;4867;48.112;11.622;2023-02-28T05:31:32;12.50;;;11.20;;
9657;SDS011;4867;48.112;11.622;2023-02-28T05:33:59;13.53;;;11.43;;
9657;SDS011;4867;48.112;11.622;2023-02-28T05:36:27;13.83;;;11.70;;
9657;SDS011;4867;48.112;11.622;2023-02-28T05:38:54;13.00;;;11.57;;
9657;SDS011;4867;48.112;11.622;2023-02-28T05:41:21;14.80;;;11.60;;
9657;SDS011;4867;48.112;11.622;2023-02-28T05:43:49;13.43;;;12.03;;
9657;SDS011;4867;48.112;11.622;2023-02-28T05:46:16;14.43;;;12.43;;
9657;SDS011;4867;48.112;11.622;2023-02-28T05:48:45;16.13;;;12.60;;
9657;SDS011;4867;48.112;11.622;2023-02-28T05:51:14;13.97;;;12.30;;
9657;SDS011;4867;48.112;11.622;2023-02-28T05:53:42;15.37;;;13.13;;
9657;SDS011;4867;48.112;11.622;2023-02-28T05:56:09;13.10;;;11.70;;
9657;SDS011;4867;48.112;11.622;2023-02-28T05:58:36;14.30;;;12.53;;
9657;SDS011;4867;48.112;11.622;2023-02-28T06:04:07;16.20;;;13.40;;
9657;SDS011;4867;48.112;11.622;2023-02-28T06:06:51;14.97;;;13.13;;
9657;SDS011;4867;48.112;11.622;2023-02-28T06:09:18;15.67;;;12.87;;
9657;SDS011;4867;48.112;11.622;2023-02-28T06:11:46;15.97;;;13.57;;
9657;SDS011;4867;48.112;11.622;2023-02-28T06:14:15;15.77;;;13.40;;
9657;SDS011;4867;48.112;11.622;2023-02-28T06:16:43;15.23;;;13.60;;
9657;SDS011;4867;48.112;11.622;2023-02-28T06:19:11;13.77;;;12.37;;
9657;SDS011;4867;48.112;11.622;2023-02-28T06:21:39;16.50;;;13.70;;
9657;SDS011;4867;48.112;11.622;2023-02-28T06:24:06;15.20;;;13.63;;
9657;SDS011;4867;48.112;11.622;2023-02-28T06:26:34;16.00;;;13.90;;
9657;SDS011;4867;48.112;11.622;2023-02-28T06:29:01;15.90;;;14.13;;
9657;SDS011;4867;48.112;11.622;2023-02-28T06:31:29;15.47;;;13.87;;
9657;SDS011;4867;48.112;11.622;2023-02-28T06:33:57;15.33;;;13.70;;
9657;SDS011;4867;48.112;11.622;2023-02-28T06:36:24;17.63;;;14.30;;
9657;SDS011;4867;48.112;11.622;2023-02-28T06:38:51;15.70;;;13.83;;
9657;SDS011;4867;48.112;11.622;2023-02-28T06:41:22;15.87;;;14.17;;
9657;SDS011;4867;48.112;11.622;2023-02-28T06:43:51;16.93;;;14.47;;
9657;SDS011;4867;48.112;11.622;2023-02-28T06:46:18;17.37;;;14.83;;
9657;SDS011;4867;48.112;11.622;2023-02-28T06:48:46;17.03;;;14.30;;
9657;SDS011;4867;48.112;11.622;2023-02-28T06:51:15;17.30;;;14.67;;
9657;SDS011;4867;48.112;11.622;2023-02-28T06:53:44;16.53;;;14.37;;
9657;SDS011;4867;48.112;11.622;2023-02-28T06:56:12;18.77;;;15.03;;
9657;SDS011;4867;48.112;11.622;2023-02-28T06:58:41;18.27;;;14.40;;
9657;SDS011;4867;48.112;11.622;2023-02-28T07:01:08;15.80;;;14.20;;
9657;SDS011;4867;48.112;11.622;2023-02-28T07:03:36;17.90;;;15.37;;
9657;SDS011;4867;48.112;11.622;2023-02-28T07:06:04;18.47;;;14.60;;
9657;SDS011;4867;48.112;11.622;2023-02-28T07:08:32;16.20;;;14.50;;
9657;SDS011;4867;48.112;11.622;2023-02-28T07:11:00;18.47;;;15.70;;
9657;SDS011;4867;48.112;11.622;2023-02-28T07:13:27;16.20;;;14.30;;
9657;SDS011;4867;48.112;11.622;2023-02-28T07:15:56;16.50;;;14.80;;
9657;SDS011;4867;48.112;11.622;2023-02-28T07:18:33;16.53;;;14.77;;
9657;SDS011;4867;48.112;11.622;2023-02-28T07:21:04;17.93;;;15.30;;
9657;SDS011;4867;48.112;11.622;2023-02-28T07:23:33;17.23;;;15.33;;
9657;SDS011;4867;48.112;11.622;2023-02-28T07:26:01;16.63;;;14.87;;
9657;SDS011;4867;48.112;11.622;2023-02-28T07:28:28;17.17;;;15.37;;
9657;SDS011;4867;48.112;11.622;2023-02-28T07:30:55;18.10;;;16.20;;
9657;SDS011;4867;48.112;11.622;2023-02-28T07:33:22;20.77;;;15.37;;
9657;SDS011;4867;48.112;11.622;2023-02-28T07:35:50;19.73;;;16.10;;
9657;SDS011;4867;48.112;11.622;2023-02-28T07:38:18;17.83;;;15.83;;
9657;SDS011;4867;48.112;11.622;2023-02-28T07:40:45;16.90;;;15.07;;
9657;SDS011;4867;48.112;11.622;2023-02-28T07:43:12;17.93;;;15.97;;
9657;SDS011;4867;48.112;11.622;2023-02-28T07:45:39;16.63;;;14.90;;
9657;SDS011;4867;48.112;11.622;2023-02-28T07:48:06;17.47;;;15.57;;
9657;SDS011;4867;48.112;11.622;2023-02-28T07:50:36;17.27;;;15.50;;
9657;SDS011;4867;48.112;11.622;2023-02-28T07:53:04;17.37;;;15.37;;
9657;SDS011;4867;48.112;11.622;2023-02-28T07:55:31;17.17;;;15.23;;
9657;SDS011;4867;48.112;11.622;2023-02-28T07:57:58;16.73;;;14.87;;
9657;SDS011;4867;48.112;11.622;2023-02-28T08:00:26;17.47;;;14.93;;
9657;SDS011;4867;48.112;11.622;2023-02-28T08:02:53;17.63;;;15.73;;
9657;SDS011;4867;48.112;11.622;2023-02-28T08:05:20;17.83;;;15.93;;
9657;SDS011;4867;48.112;11.622;2023-02-28T08:07:51;18.50;;;15.70;;
9657;SDS011;4867;48.112;11.622;2023-02-28T08:10:19;16.67;;;14.87;;
9657;SDS011;4867;48.112;11.622;2023-02-28T08:12:47;20.17;;;14.57;;
9657;SDS011;4867;48.112;11.622;2023-02-28T08:15:14;16.47;;;14.70;;
9657;SDS011;4867;48.112;11.622;2023-02-28T08:17:41;17.93;;;15.73;;
9657;SDS011;4867;48.112;11.622;2023-02-28T08:20:08;17.27;;;15.37;;
9657;SDS011;4867;48.112;11.622;2023-02-28T08:22:36;18.03;;;15.50;;
9657;SDS011;4867;48.112;11.622;2023-02-28T08:25:04;16.83;;;14.73;;
9657;SDS011;4867;48.112;11.622;2023-02-28T08:27:34;17.13;;;15.33;;
9657;SDS011;4867;48.112;11.622;2023-02-28T08:30:02;16.73;;;14.93;;
9657;SDS011;4867;48.112;11.622;2023-02-28T08:32:30;17.47;;;15.57;;
9657;SDS011;4867;48.112;11.622;2023-02-28T08:34:59;16.07;;;14.40;;
9657;SDS011;4867;48.112;11.622;2023-02-28T08:37:26;16.20;;;14.53;;
9657;SDS011;4867;48.112;11.622;2023-02-28T08:39:53;17.17;;;15.40;;
9657;SDS011;4867;48.112;11.622;2023-02-28T08:42:22;17.00;;;15.27;;
9657;SDS011;4867;48.112;11.622;2023-02-28T08:44:50;18.80;;;16.67;;
9657;SDS011;4867;48.112;11.622;2023-02-28T08:47:18;18.07;;;16.17;;
9657;SDS011;4867;48.112;11.622;2023-02-28T08:49:45;17.23;;;15.43;;
9657;SDS011;4867;48.112;11.622;2023-02-28T08:52:12;17.90;;;15.93;;
9657;SDS011;4867;48.112;11.622;2023-02-28T08:54:40;17.07;;;15.37;;
9657;SDS011;4867;48.112;11.622;2023-02-28T08:57:07;17.40;;;15.30;;
9657;SDS011;4867;48.112;11.622;2023-02-28T08:59:34;17.97;;;16.17;;
9657;SDS011;4867;48.112;11.622;2023-02-28T09:02:02;18.93;;;16.17;;
9657;SDS011;4867;48.112;11.622;2023-02-28T09:04:29;19.10;;;16.40;;
9657;SDS011;4867;48.112;11.622;2023-02-28T09:06:57;18.87;;;16.63;;
9657;SDS011;4867;48.112;11.622;2023-02-28T09:09:25;20.40;;;16.20;;
9657;SDS011;4867;48.112;11.622;2023-02-28T09:11:52;18.20;;;16.23;;
9657;SDS011;4867;48.112;11.622;2023-02-28T09:14:21;19.97;;;15.93;;
9657;SDS011;4867;48.112;11.622;2023-02-28T09:16:49;16.30;;;14.67;;
9657;SDS011;4867;48.112;11.622;2023-02-28T09:19:16;17.03;;;15.23;;
9657;SDS011;4867;48.112;11.622;2023-02-28T09:21:43;16.87;;;15.07;;
9657;SDS011;4867;48.112;11.622;2023-02-28T09:24:11;19.23;;;15.80;;
9657;SDS011;4867;48.112;11.622;2023-02-28T09:26:40;15.87;;;14.23;;
9657;SDS011;4867;48.112;11.622;2023-02-28T09:29:21;17.70;;;15.17;;
9657;SDS011;4867;48.112;11.622;2023-02-28T09:31:48;17.07;;;15.13;;
9657;SDS011;4867;48.112;11.622;2023-02-28T09:34:16;18.50;;;15.27;;
9657;SDS011;4867;48.112;11.622;2023-02-28T09:36:44;16.83;;;14.50;;
9657;SDS011;4867;48.112;11.622;2023-02-28T09:39:12;16.13;;;14.43;;
9657;SDS011;4867;48.112;11.622;2023-02-28T09:41:45;16.67;;;14.87;;
9657;SDS011;4867;48.112;11.622;2023-02-28T09:47:25;16.27;;;14.57;;
9657;SDS011;4867;48.112;11.622;2023-02-28T09:49:58;17.57;;;15.67;;
9657;SDS011;4867;48.112;11.622;2023-02-28T09:52:33;17.60;;;15.63;;
9657;SDS011;4867;48.112;11.622;2023-02-28T09:55:11;17.47;;;15.10;;
9657;SDS011;4867;48.112;11.622;2023-02-28T09:57:54;18.53;;;15.93;;
9657;SDS011;4867;48.112;11.622;2023-02-28T10:00:30;17.70;;;15.87;;
9657;SDS011;4867;48.112;11.622;2023-02-28T10:03:23;18.10;;;16.30;;
9657;SDS011;4867;48.112;11.622;2023-02-28T10:06:09;17.83;;;15.97;;
9657;SDS011;4867;48.112;11.622;2023-02-28T10:08:56;17.30;;;15.40;;
9657;SDS011;4867;48.112;11.622;2023-02-28T10:11:32;17.43;;;15.53;;
9657;SDS011;4867;48.112;11.622;2023-02-28T10:16:36;18.97;;;15.27;;
9657;SDS011;4867;48.112;11.622;2023-02-28T10:19:16;18.20;;;15.33;;
9657;SDS011;4867;48.112;11.622;2023-02-28T10:22:05;20.30;;;16.27;;
9657;SDS011;4867;48.112;11.622;2023-02-28T10:24:46;18.23;;;14.50;;
9657;SDS011;4867;48.112;11.622;2023-02-28T10:27:29;18.50;;;15.03;;
9657;SDS011;4867;48.112;11.622;2023-02-28T10:29:58;17.00;;;13.93;;
9657;SDS011;4867;48.112;11.622;2023-02-28T10:32:33;16.90;;;14.47;;
9657;SDS011;4867;48.112;11.622;2023-02-28T10:35:16;18.13;;;14.50;;
9657;SDS011;4867;48.112;11.622;2023-02-28T10:37:54;16.07;;;14.20;;
9657;SDS011;4867;48.112;11.622;2023-02-28T10:40:29;16.87;;;15.10;;
9657;SDS011;4867;48.112;11.622;2023-02-28T10:43:06;18.07;;;15.17;;
9657;SDS011;4867;48.112;11.622;2023-02-28T10:45:57;16.70;;;14.90;;
9657;SDS011;4867;48.112;11.622;2023-02-28T10:51:08;17.60;;;14.80;;
9657;SDS011;4867;48.112;11.622;2023-02-28T10:56:27;17.10;;;15.30;;
9657;SDS011;4867;48.112;11.622;2023-02-28T10:59:00;16.57;;;14.83;;
9657;SDS011;4867;48.112;11.622;2023-02-28T11:01:50;18.50;;;14.90;;
9657;SDS011;4867;48.112;11.622;2023-02-28T11:07:00;16.73;;;14.97;;
9657;SDS011;4867;48.112;11.622;2023-02-28T11:09:37;16.60;;;14.90;;
9657;SDS011;4867;48.112;11.622;2023-02-28T11:12:07;16.37;;;14.73;;
9657;SDS011;4867;48.112;11.622;2023-02-28T11:14:53;17.27;;;15.30;;
9657;SDS011;4867;48.112;11.622;2023-02-28T11:17:27;16.33;;;14.60;;
9657;SDS011;4867;48.112;11.622;2023-02-28T11:20:02;18.63;;;15.37;;
9657;SDS011;4867;48.112;11.622;2023-02-28T11:22:37;16.93;;;14.67;;
9657;SDS011;4867;48.112;11.622;2023-02-28T11:25:13;16.07;;;14.47;;
9657;SDS011;4867;48.112;11.622;2023-02-28T11:27:50;16.27;;;14.57;;
9657;SDS011;4867;48.112;11.622;2023-02-28T11:30:38;17.23;;;15.40;;
9657;SDS011;4867;48.112;11.622;2023-02-28T11:33:27;17.17;;;15.00;;
9657;SDS011;4867;48.112;11.622;2023-02-28T11:35:58;16.73;;;14.93;;
9657;SDS011;4867;48.112;11.622;2023-02-28T11:38:37;16.13;;;14.43;;
9657;SDS011;4867;48.112;11.622;2023-02-28T11:41:10;16.70;;;14.80;;
9657;SDS011;4867;48.112;11.622;2023-02-28T11:43:51;17.63;;;15.00;;
9657;SDS011;4867;48.112;11.622;2023-02-28T11:52:29;16.83;;;15.03;;
9657;SDS011;4867;48.112;11.622;2023-02-28T11:58:32;16.47;;;14.87;;
9657;SDS011;4867;48.112;11.622;2023-02-28T12:00:54;16.27;;;14.50;;
9657;SDS011;4867;48.112;11.622;2023-02-28T12:03:44;16.93;;;15.30;;
9657;SDS011;4867;48.112;11.622;2023-02-28T12:12:30;17.70;;;13.80;;
9657;SDS011;4867;48.112;11.622;2023-02-28T12:15:32;17.27;;;15.47;;
9657;SDS011;4867;48.112;11.622;2023-02-28T12:18:11;15.37;;;13.97;;
9657;SDS011;4867;48.112;11.622;2023-02-28T12:29:19;14.73;;;13.17;;
9657;SDS011;4867;48.112;11.622;2023-02-28T12:31:56;15.60;;;14.00;;
9657;SDS011;4867;48.112;11.622;2023-02-28T12:34:37;16.37;;;14.67;;
9657;SDS011;4867;48.112;11.622;2023-02-28T12:37:13;16.53;;;14.83;;
9657;SDS011;4867;48.112;11.622;2023-02-28T12:39:45;16.60;;;14.57;;
9657;SDS011;4867;48.112;11.622;2023-02-28T12:42:24;15.17;;;13.67;;
9657;SDS011;4867;48.112;11.622;2023-02-28T12:45:01;15.13;;;13.53;;
9657;SDS011;4867;48.112;11.622;2023-02-28T12:47:31;17.00;;;14.13;;
9657;SDS011;4867;48.112;11.622;2023-02-28T12:50:04;15.63;;;14.10;;
9657;SDS011;4867;48.112;11.622;2023-02-28T12:55:15;15.13;;;13.53;;
9657;SDS011;4867;48.112;11.622;2023-02-28T12:57:49;15.47;;;13.57;;
9657;SDS011;4867;48.112;11.622;2023-02-28T13:09:28;15.03;;;12.63;;
9657;SDS011;4867;48.112;11.622;2023-02-28T13:11:56;15.50;;;12.80;;
9657;SDS011;4867;48.112;11.622;2023-02-28T13:19:42;14.67;;;13.17;;
9657;SDS011;4867;48.112;11.622;2023-02-28T13:25:01;14.73;;;13.30;;
9657;SDS011;4867;48.112;11.622;2023-02-28T13:27:38;13.87;;;12.40;;
9657;SDS011;4867;48.112;11.622;2023-02-28T13:36:06;15.90;;;14.03;;
9657;SDS011;4867;48.112;11.622;2023-02-28T13:44:11;15.90;;;13.30;;
9657;SDS011;4867;48.112;11.622;2023-02-28T13:49:18;17.70;;;14.60;;
9657;SDS011;4867;48.112;11.622;2023-02-28T14:03:41;15.13;;;13.70;;
9657;SDS011;4867;48.112;11.622;2023-02-28T14:06:33;14.97;;;13.30;;
9657;SDS011;4867;48.112;11.622;2023-02-28T14:09:21;14.23;;;12.83;;
9657;SDS011;4867;48.112;11.622;2023-02-28T14:11:50;15.33;;;13.73;;
9657;SDS011;4867;48.112;11.622;2023-02-28T14:17:04;15.03;;;13.00;;
9657;SDS011;4867;48.112;11.622;2023-02-28T14:19:39;15.70;;;12.57;;
9657;SDS011;4867;48.112;11.622;2023-02-28T14:22:21;14.00;;;12.50;;
9657;SDS011;4867;48.112;11.622;2023-02-28T14:31:01;17.13;;;12.80;;
9657;SDS011;4867;48.112;11.622;2023-02-28T14:38:58;15.23;;;12.53;;
9657;SDS011;4867;48.112;11.622;2023-02-28T14:41:35;13.70;;;11.83;;
9657;SDS011;4867;48.112;11.622;2023-02-28T14:44:24;12.93;;;11.53;;
9657;SDS011;4867;48.112;11.622;2023-02-28T14:47:01;14.03;;;12.57;;
9657;SDS011;4867;48.112;11.622;2023-02-28T14:49:34;16.30;;;12.00;;
9657;SDS011;4867;48.112;11.622;2023-02-28T14:52:23;14.43;;;12.03;;
9657;SDS011;4867;48.112;11.622;2023-02-28T14:54:55;13.07;;;11.73;;
9657;SDS011;4867;48.112;11.622;2023-02-28T14:57:29;13.27;;;11.97;;
9657;SDS011;4867;48.112;11.622;2023-02-28T15:00:12;13.60;;;11.90;;
9657;SDS011;4867;48.112;11.622;2023-02-28T15:02:42;13.03;;;11.43;;
9657;SDS011;4867;48.112;11.622;2023-02-28T15:07:46;12.50;;;11.17;;
9657;SDS011;4867;48.112;11.622;2023-02-28T15:12:53;13.43;;;11.53;;
9657;SDS011;4867;48.112;11.622;2023-02-28T15:15:26;13.60;;;10.67;;
9657;SDS011;4867;48.112;11.622;2023-02-28T15:18:38;14.20;;;11.57;;
9657;SDS011;4867;48.112;11.622;2023-02-28T15:21:27;14.83;;;12.03;;
9657;SDS011;4867;48.112;11.622;2023-02-28T15:24:05;13.17;;;11.83;;
9657;SDS011;4867;48.112;11.622;2023-02-28T15:26:38;13.00;;;11.70;;
9657;SDS011;4867;48.112;11.622;2023-02-28T15:29:10;14.70;;;12.57;;
9657;SDS011;4867;48.112;11.622;2023-02-28T15:31:46;15.43;;;11.70;;
9657;SDS011;4867;48.112;11.622;2023-02-28T15:34:31;12.87;;;11.57;;
9657;SDS011;4867;48.112;11.622;2023-02-28T15:40:14;14.67;;;11.70;;
9657;SDS011;4867;48.112;11.622;2023-02-28T15:45:51;12.40;;;11.10;;
9657;SDS011;4867;48.112;11.622;2023-02-28T15:48:20;14.33;;;12.10;;
9657;SDS011;4867;48.112;11.622;2023-02-28T15:50:54;13.13;;;11.57;;
9657;SDS011;4867;48.112;11.622;2023-02-28T15:53:30;18.10;;;12.17;;
9657;SDS011;4867;48.112;11.622;2023-02-28T15:56:04;18.57;;;12.60;;
9657;SDS011;4867;48.112;11.622;2023-02-28T15:58:39;14.80;;;12.77;;
9657;SDS011;4867;48.112;11.622;2023-02-28T16:01:24;13.77;;;11.90;;
9657;SDS011;4867;48.112;11.622;2023-02-28T16:04:03;15.00;;;11.37;;
9657;SDS011;4867;48.112;11.622;2023-02-28T16:09:05;16.70;;;12.67;;
9657;SDS011;4867;48.112;11.622;2023-02-28T16:11:35;13.30;;;11.90;;
9657;SDS011;4867;48.112;11.622;2023-02-28T16:14:17;14.60;;;11.87;;
9657;SDS011;4867;48.112;11.622;2023-02-28T16:16:48;14.37;;;12.60;;
9657;SDS011;4867;48.112;11.622;2023-02-28T16:19:18;14.20;;;11.93;;
9657;SDS011;4867;48.112;11.622;2023-02-28T16:21:46;16.83;;;12.93;;
9657;SDS011;4867;48.112;11.622;2023-02-28T16:24:14;14.47;;;12.70;;
9657;SDS011;4867;48.112;11.622;2023-02-28T16:26:42;15.03;;;12.17;;
9657;SDS011;4867;48.112;11.622;2023-02-28T16:29:13;14.97;;;12.90;;
9657;SDS011;4867;48.112;11.622;2023-02-28T16:31:53;13.97;;;12.47;;
9657;SDS011;4867;48.112;11.622;2023-02-28T16:34:20;16.80;;;13.23;;
9657;SDS011;4867;48.112;11.622;2023-02-28T16:36:48;18.73;;;13.03;;
9657;SDS011;4867;48.112;11.622;2023-02-28T16:39:16;18.50;;;13.87;;
9657;SDS011;4867;48.112;11.622;2023-02-28T16:41:46;18.27;;;15.40;;
9657;SDS011;4867;48.112;11.622;2023-02-28T16:44:27;20.67;;;16.77;;
9657;SDS011;4867;48.112;11.622;2023-02-28T16:46:56;22.90;;;17.13;;
9657;SDS011;4867;48.112;11.622;2023-02-28T16:49:23;21.43;;;15.93;;
9657;SDS011;4867;48.112;11.622;2023-02-28T16:51:50;16.93;;;14.80;;
9657;SDS011;4867;48.112;11.622;2023-02-28T16:54:17;31.13;;;21.70;;
9657;SDS011;4867;48.112;11.622;2023-02-28T16:56:46;25.97;;;19.90;;
9657;SDS011;4867;48.112;11.622;2023-02-28T16:59:15;28.80;;;18.47;;
9657;SDS011;4867;48.112;11.622;2023-02-28T17:01:51;16.63;;;14.70;;
9657;SDS011;4867;48.112;11.622;2023-02-28T17:04:19;17.00;;;13.53;;
9657;SDS011;4867;48.112;11.622;2023-02-28T17:06:46;18.17;;;15.17;;
9657;SDS011;4867;48.112;11.622;2023-02-28T17:09:15;16.07;;;14.37;;
9657;SDS011;4867;48.112;11.622;2023-02-28T17:11:44;18.67;;;14.80;;
9657;SDS011;4867;48.112;11.622;2023-02-28T17:14:12;18.57;;;14.73;;
9657;SDS011;4867;48.112;11.622;2023-02-28T17:16:39;17.23;;;15.43;;
9657;SDS011;4867;48.112;11.622;2023-02-28T17:19:12;16.70;;;14.70;;
9657;SDS011;4867;48.112;11.622;2023-02-28T17:21:42;17.23;;;14.93;;
9657;SDS011;4867;48.112;11.622;2023-02-28T17:24:10;19.47;;;15.73;;
9657;SDS011;4867;48.112;11.622;2023-02-28T17:26:51;22.37;;;17.00;;
9657;SDS011;4867;48.112;11.622;2023-02-28T17:29:19;25.77;;;17.17;;
9657;SDS011;4867;48.112;11.622;2023-02-28T17:31:47;21.93;;;17.73;;
9657;SDS011;4867;48.112;11.622;2023-02-28T17:34:15;21.57;;;18.30;;
9657;SDS011;4867;48.112;11.622;2023-02-28T17:36:45;18.57;;;16.57;;
9657;SDS011;4867;48.112;11.622;2023-02-28T17:39:15;20.30;;;17.03;;
9657;SDS011;4867;48.112;11.622;2023-02-28T17:41:50;22.20;;;17.63;;
9657;SDS011;4867;48.112;11.622;2023-02-28T17:44:22;20.93;;;17.57;;
9657;SDS011;4867;48.112;11.622;2023-02-28T17:46:51;24.50;;;18.20;;